Time;durP1;ratioP1;P1;durP2;ratioP2;P2;SDS_P1;SDS_P2;PMS_P1;PMS_P2;Temp;Humidity;BMP_temperature;BMP_pressure;BME280_temperature;BME280_humidity;BME280_pressure;Samples;Min_cycle;Max_cycle;Signal;HPM_P1;HPM_P2
2022/04/29 00:00:05;;;;;;;17.88;6.00;;;5.60;99.90;;;;;;5034974;28;20140;-84
2022/04/29 00:02:32;;;;;;;20.90;6.65;;;5.40;99.90;;;;;;5052568;28;20056;-84
2022/04/29 00:04:57;;;;;;;12.02;6.30;;;5.40;99.90;;;;;;5034490;28;20490;-84
2022/04/29 00:07:23;;;;;;;15.70;6.68;;;5.40;99.90;;;;;;5052662;28;20049;-85
2022/04/29 00:09:49;;;;;;;13.30;6.57;;;5.40;99.90;;;;;;5051683;28;20045;-84
2022/04/29 00:12:15;;;;;;;16.40;6.80;;;5.40;99.90;;;;;;5018547;28;20429;-83
2022/04/29 00:14:40;;;;;;;12.93;7.00;;;5.30;99.90;;;;;;5050783;28;20060;-83
2022/04/29 00:17:06;;;;;;;16.67;7.65;;;5.40;99.90;;;;;;5034747;28;20075;-85
2022/04/29 00:19:33;;;;;;;15.77;7.32;;;5.40;99.90;;;;;;5053452;28;20461;-84
2022/04/29 00:21:59;;;;;;;16.42;7.60;;;5.40;99.90;;;;;;5053104;28;20072;-84
2022/04/29 00:24:24;;;;;;;16.88;6.70;;;5.30;99.90;;;;;;5036007;28;20509;-84
2022/04/29 00:26:50;;;;;;;16.63;7.55;;;5.30;99.90;;;;;;5053865;28;20040;-83
2022/04/29 00:29:16;;;;;;;15.23;7.43;;;5.30;99.90;;;;;;5035473;28;20144;-86
2022/04/29 00:31:42;;;;;;;19.55;7.95;;;5.20;99.90;;;;;;5053677;28;20055;-83
2022/04/29 00:34:08;;;;;;;19.67;8.00;;;5.20;99.90;;;;;;5054992;28;20037;-84
2022/04/29 00:36:33;;;;;;;18.88;8.63;;;5.10;99.90;;;;;;5037171;28;20049;-83
2022/04/29 00:38:59;;;;;;;19.90;7.63;;;5.10;99.90;;;;;;5037539;28;20049;-84
2022/04/29 00:41:25;;;;;;;13.35;8.48;;;5.00;99.90;;;;;;5055270;28;20044;-83
2022/04/29 00:44:04;;;;;;;20.08;8.93;;;4.90;99.90;;;;;;5054790;28;20132;-89
2022/04/29 00:46:38;;;;;;;18.65;8.02;;;4.90;99.90;;;;;;5036855;28;20530;-84
2022/04/29 00:49:06;;;;;;;25.88;9.10;;;4.80;99.90;;;;;;5036337;28;20045;-84
2022/04/29 00:51:32;;;;;;;24.15;9.65;;;4.80;99.90;;;;;;5035902;28;20442;-84
2022/04/29 00:54:00;;;;;;;19.77;9.15;;;4.70;99.90;;;;;;5037823;28;20102;-84
2022/04/29 00:56:30;;;;;;;20.70;9.32;;;4.70;99.90;;;;;;5038356;28;20045;-84
2022/04/29 00:59:02;;;;;;;21.02;9.43;;;4.60;99.90;;;;;;5038044;28;20071;-84
2022/04/29 01:01:32;;;;;;;19.67;10.02;;;4.70;99.90;;;;;;5038466;28;20099;-83
2022/04/29 01:04:00;;;;;;;19.80;10.00;;;4.50;99.90;;;;;;5055685;28;20053;-84
2022/04/29 01:06:26;;;;;;;17.75;9.88;;;4.50;99.90;;;;;;5037746;28;20060;-84
2022/04/29 01:08:52;;;;;;;19.27;9.63;;;4.50;99.90;;;;;;5055390;28;20048;-84
2022/04/29 01:11:24;;;;;;;18.45;9.20;;;4.50;99.90;;;;;;5037377;28;20151;-84
2022/04/29 01:13:51;;;;;;;23.45;11.10;;;4.50;99.90;;;;;;5037447;28;20041;-84
2022/04/29 01:16:18;;;;;;;26.13;10.57;;;4.50;99.90;;;;;;5037790;28;20051;-85
2022/04/29 01:18:45;;;;;;;18.60;9.15;;;4.50;99.90;;;;;;5037864;28;20186;-83
2022/04/29 01:21:12;;;;;;;21.00;10.48;;;4.50;99.90;;;;;;5055460;28;20052;-84
2022/04/29 01:23:38;;;;;;;20.65;9.98;;;4.50;99.90;;;;;;5037650;28;20079;-83
2022/04/29 01:26:04;;;;;;;19.83;10.13;;;4.50;99.90;;;;;;5055005;28;20045;-83
2022/04/29 01:28:31;;;;;;;20.83;10.32;;;4.50;99.90;;;;;;5037054;28;20444;-83
2022/04/29 01:31:01;;;;;;;22.48;10.52;;;4.70;99.90;;;;;;5054830;28;20052;-84
2022/04/29 01:33:28;;;;;;;15.85;9.25;;;4.50;99.90;;;;;;5037571;28;20057;-83
2022/04/29 01:35:55;;;;;;;17.15;9.02;;;4.50;99.90;;;;;;5054993;28;20139;-85
2022/04/29 01:38:21;;;;;;;17.65;8.35;;;4.50;99.90;;;;;;5055132;28;20251;-84
2022/04/29 01:40:46;;;;;;;19.05;9.68;;;4.50;99.90;;;;;;5054732;28;20076;-84
2022/04/29 01:43:12;;;;;;;17.13;9.18;;;4.70;99.90;;;;;;5054843;28;20237;-83
2022/04/29 01:45:38;;;;;;;16.25;8.82;;;4.80;99.90;;;;;;5054801;28;20470;-85
2022/04/29 01:48:04;;;;;;;20.05;9.48;;;4.60;99.90;;;;;;5054557;28;20402;-83
2022/04/29 01:50:32;;;;;;;16.95;8.80;;;4.50;99.90;;;;;;5054580;28;20049;-84
2022/04/29 01:52:58;;;;;;;21.95;9.95;;;4.60;99.90;;;;;;5036800;28;20123;-83
2022/04/29 01:55:23;;;;;;;21.00;9.00;;;4.40;99.90;;;;;;5054756;28;20559;-83
2022/04/29 01:57:50;;;;;;;25.08;9.55;;;4.40;99.90;;;;;;5054604;28;20059;-84
2022/04/29 02:00:17;;;;;;;18.27;9.45;;;4.40;99.90;;;;;;5054329;28;20088;-84
2022/04/29 02:02:43;;;;;;;23.40;9.32;;;4.40;99.90;;;;;;5054475;28;20056;-83
2022/04/29 02:05:09;;;;;;;14.98;8.98;;;4.30;99.90;;;;;;5036134;28;20132;-84
2022/04/29 02:07:35;;;;;;;23.10;9.48;;;4.50;99.90;;;;;;5054337;28;20422;-83
2022/04/29 02:10:00;;;;;;;22.38;9.77;;;4.40;99.90;;;;;;5054492;28;20045;-84
2022/04/29 02:12:26;;;;;;;17.75;9.55;;;4.30;99.90;;;;;;5054232;28;20049;-84
2022/04/29 02:14:52;;;;;;;15.93;8.32;;;4.30;99.90;;;;;;5054178;28;20045;-83
2022/04/29 02:17:17;;;;;;;18.70;9.65;;;4.30;99.90;;;;;;5036258;28;20140;-83
2022/04/29 02:19:43;;;;;;;28.52;10.90;;;4.30;99.90;;;;;;5054161;28;20608;-84
2022/04/29 02:22:09;;;;;;;18.63;9.80;;;4.30;99.90;;;;;;5036571;28;20652;-83
2022/04/29 02:24:35;;;;;;;19.85;9.55;;;4.30;99.90;;;;;;5036582;28;20084;-83
2022/04/29 02:27:03;;;;;;;26.85;10.52;;;4.70;99.90;;;;;;5053932;28;20099;-83
2022/04/29 02:29:29;;;;;;;20.48;10.80;;;4.40;99.90;;;;;;5054044;28;20128;-83
2022/04/29 02:31:58;;;;;;;18.90;10.38;;;4.40;99.90;;;;;;5036096;28;20131;-84
2022/04/29 02:34:23;;;;;;;24.27;10.20;;;4.40;99.90;;;;;;5036611;28;20465;-84
2022/04/29 02:36:49;;;;;;;20.73;11.18;;;4.30;99.90;;;;;;5053999;28;20079;-84
2022/04/29 02:39:15;;;;;;;21.48;10.05;;;4.30;99.90;;;;;;5036267;28;20443;-83
2022/04/29 02:41:41;;;;;;;19.90;9.35;;;4.30;99.90;;;;;;5053762;28;20060;-84
2022/04/29 02:44:06;;;;;;;18.58;9.93;;;4.30;99.90;;;;;;5052439;28;20064;-83
2022/04/29 02:46:34;;;;;;;26.48;10.30;;;4.40;99.90;;;;;;5035915;28;20064;-84
2022/04/29 02:49:00;;;;;;;17.08;9.10;;;4.30;99.90;;;;;;5053724;28;20406;-83
2022/04/29 02:51:25;;;;;;;15.48;9.52;;;4.30;99.90;;;;;;5053671;28;20041;-84
2022/04/29 02:53:51;;;;;;;18.92;8.68;;;4.30;99.90;;;;;;5052343;28;20041;-83
2022/04/29 02:56:18;;;;;;;25.33;10.20;;;4.40;99.90;;;;;;5035974;28;20072;-84
2022/04/29 02:58:44;;;;;;;16.08;9.23;;;4.40;99.90;;;;;;5053203;28;20041;-83
2022/04/29 03:01:10;;;;;;;22.65;9.70;;;4.40;99.90;;;;;;5035754;28;20095;-83
2022/04/29 03:03:36;;;;;;;22.30;9.45;;;4.40;99.90;;;;;;5053176;28;20080;-83
2022/04/29 03:06:01;;;;;;;16.80;10.05;;;4.50;99.90;;;;;;5053314;28;20106;-84
2022/04/29 03:08:27;;;;;;;23.13;9.82;;;4.50;99.90;;;;;;5053293;28;20045;-84
2022/04/29 03:10:53;;;;;;;23.73;9.30;;;4.90;99.90;;;;;;5035863;28;20475;-83
2022/04/29 03:13:19;;;;;;;16.92;8.60;;;4.50;99.90;;;;;;5053104;28;20363;-83
2022/04/29 03:15:45;;;;;;;16.98;9.10;;;4.50;99.90;;;;;;5035111;28;20049;-84
2022/04/29 03:18:21;;;;;;;20.77;9.43;;;4.50;99.90;;;;;;5035156;28;20103;-84
2022/04/29 03:20:49;;;;;;;22.58;10.02;;;4.50;99.90;;;;;;5053206;28;20398;-84
2022/04/29 03:23:14;;;;;;;21.40;9.57;;;4.50;99.90;;;;;;5052935;28;20045;-83
2022/04/29 03:25:41;;;;;;;18.83;10.32;;;4.50;99.90;;;;;;5018745;28;20071;-83
2022/04/29 03:28:07;;;;;;;25.02;10.65;;;4.40;99.90;;;;;;5035145;28;20048;-83
2022/04/29 03:30:34;;;;;;;25.92;10.10;;;4.40;99.90;;;;;;5052768;28;20457;-83
2022/04/29 03:33:04;;;;;;;21.92;10.60;;;4.30;99.90;;;;;;5052596;28;20048;-85
2022/04/29 03:35:31;;;;;;;32.53;10.80;;;4.30;99.90;;;;;;5035448;28;20045;-83
2022/04/29 03:37:57;;;;;;;15.43;9.90;;;4.20;99.90;;;;;;5052850;28;20056;-83
2022/04/29 03:40:24;;;;;;;18.65;10.02;;;4.20;99.90;;;;;;5052839;28;20061;-83
2022/04/29 03:42:52;;;;;;;18.80;10.38;;;4.10;99.90;;;;;;5052850;28;20452;-83
2022/04/29 03:45:19;;;;;;;19.38;9.52;;;4.10;99.90;;;;;;5052483;28;20049;-84
2022/04/29 03:47:45;;;;;;;22.55;10.32;;;4.00;99.90;;;;;;5052654;28;20410;-83
2022/04/29 03:50:12;;;;;;;23.30;10.02;;;4.00;99.90;;;;;;5035092;28;20045;-83
2022/04/29 03:52:48;;;;;;;26.73;10.30;;;4.00;99.90;;;;;;5034903;28;20091;-84
2022/04/29 03:55:15;;;;;;;19.10;9.93;;;4.00;99.90;;;;;;5017911;28;20517;-83
2022/04/29 03:57:41;;;;;;;23.70;10.70;;;4.00;99.90;;;;;;5034366;28;20063;-83
2022/04/29 04:00:08;;;;;;;20.15;10.65;;;4.00;99.90;;;;;;5034376;28;20063;-84
2022/04/29 04:02:34;;;;;;;27.65;10.85;;;4.00;99.90;;;;;;5052583;28;20049;-83
2022/04/29 04:04:59;;;;;;;18.90;10.57;;;4.00;99.90;;;;;;5052254;28;20475;-83
2022/04/29 04:07:25;;;;;;;20.83;10.13;;;4.10;99.90;;;;;;5052137;28;20120;-83
2022/04/29 04:09:51;;;;;;;22.88;10.35;;;4.10;99.90;;;;;;5052041;28;20044;-83
2022/04/29 04:12:16;;;;;;;27.00;10.98;;;4.10;99.90;;;;;;5034824;28;20371;-83
2022/04/29 04:14:43;;;;;;;24.05;10.88;;;4.10;99.90;;;;;;5034446;28;20128;-84
2022/04/29 04:17:08;;;;;;;20.23;10.90;;;4.20;99.90;;;;;;5034431;28;20099;-82
2022/04/29 04:19:35;;;;;;;20.27;10.68;;;4.20;99.90;;;;;;5034728;28;20068;-84
2022/04/29 04:22:01;;;;;;;20.05;11.38;;;4.50;99.90;;;;;;5034552;28;20067;-84
2022/04/29 04:24:27;;;;;;;26.88;11.45;;;4.20;99.90;;;;;;5034627;28;20049;-83
2022/04/29 04:26:53;;;;;;;15.65;10.45;;;4.20;99.90;;;;;;5034046;28;20064;-83
2022/04/29 04:29:18;;;;;;;25.20;11.77;;;4.10;99.90;;;;;;5056155;28;20508;-83
2022/04/29 04:31:44;;;;;;;25.63;11.20;;;4.20;99.90;;;;;;5038047;28;20057;-83
2022/04/29 04:36:54;;;;;;;20.80;11.25;;;4.10;99.90;;;;;;5055809;28;20109;-87
2022/04/29 04:39:21;;;;;;;21.35;12.45;;;4.10;99.90;;;;;;5056218;28;20052;-83
2022/04/29 04:41:48;;;;;;;22.50;11.88;;;4.20;99.90;;;;;;5038322;28;20106;-82
2022/04/29 04:44:13;;;;;;;26.70;13.13;;;4.20;99.90;;;;;;5055547;28;20064;-83
2022/04/29 04:46:40;;;;;;;25.95;12.10;;;4.20;99.90;;;;;;5056122;28;20193;-83
2022/04/29 04:49:05;;;;;;;19.92;12.23;;;4.30;99.90;;;;;;5038276;28;20114;-83
2022/04/29 04:51:31;;;;;;;23.15;11.23;;;4.30;99.90;;;;;;5055816;28;20045;-83
2022/04/29 04:53:57;;;;;;;21.17;11.77;;;4.40;99.90;;;;;;5021725;28;20045;-83
2022/04/29 04:56:23;;;;;;;26.20;11.55;;;4.50;99.90;;;;;;5055682;28;20054;-84
2022/04/29 04:58:48;;;;;;;21.73;10.88;;;4.50;99.90;;;;;;5038251;28;20045;-84
2022/04/29 05:01:14;;;;;;;19.17;11.18;;;4.60;99.90;;;;;;5055595;28;20048;-83
2022/04/29 05:03:43;;;;;;;18.45;10.93;;;4.80;99.90;;;;;;5056146;28;20073;-83
2022/04/29 05:06:09;;;;;;;22.73;10.85;;;4.90;99.90;;;;;;5055737;28;20071;-85
2022/04/29 05:08:35;;;;;;;21.27;9.85;;;5.10;99.90;;;;;;5055571;28;20128;-83
2022/04/29 05:11:00;;;;;;;19.52;9.32;;;5.30;99.90;;;;;;5021351;28;20059;-83
2022/04/29 05:13:27;;;;;;;24.10;11.18;;;5.50;99.90;;;;;;5056002;28;20037;-83
2022/04/29 05:15:53;;;;;;;16.70;10.13;;;5.60;99.90;;;;;;5038192;28;20452;-83
2022/04/29 05:18:18;;;;;;;18.98;10.05;;;5.70;99.90;;;;;;5026591;28;20120;-83
2022/04/29 05:20:44;;;;;;;15.23;9.15;;;5.90;99.90;;;;;;5035181;28;20041;-83
2022/04/29 05:23:10;;;;;;;17.23;9.32;;;6.00;99.90;;;;;;5050860;28;20112;-83
2022/04/29 05:25:35;;;;;;;13.82;8.80;;;6.30;99.90;;;;;;5041992;28;20049;-83
2022/04/29 05:28:02;;;;;;;22.15;9.73;;;6.20;99.90;;;;;;5062929;28;20037;-83
2022/04/29 05:30:30;;;;;;;14.18;8.13;;;6.50;99.90;;;;;;5062514;28;20040;-83
2022/04/29 05:32:56;;;;;;;15.43;8.35;;;6.40;99.90;;;;;;5055192;28;20048;-83
2022/04/29 05:35:22;;;;;;;15.88;8.68;;;6.80;99.90;;;;;;5066109;28;20048;-82
2022/04/29 05:37:48;;;;;;;13.05;7.88;;;6.60;99.90;;;;;;5056835;28;20049;-82
2022/04/29 05:42:58;;;;;;;13.73;7.22;;;6.90;99.90;;;;;;5017072;28;20513;-84
2022/04/29 05:45:24;;;;;;;18.90;7.72;;;6.90;99.90;;;;;;5034797;28;20045;-86
2022/04/29 05:47:50;;;;;;;14.45;7.40;;;7.00;99.90;;;;;;5017671;28;20112;-83
2022/04/29 05:50:16;;;;;;;13.38;7.30;;;7.00;99.90;;;;;;5017309;28;20080;-83
2022/04/29 05:52:41;;;;;;;14.23;7.18;;;7.00;99.90;;;;;;5000659;28;20084;-82
2022/04/29 05:55:08;;;;;;;11.32;7.00;;;7.10;99.90;;;;;;5027911;28;20099;-83
2022/04/29 05:57:33;;;;;;;15.55;6.72;;;7.20;99.90;;;;;;5036431;28;20132;-83
2022/04/29 05:59:59;;;;;;;16.27;6.78;;;7.20;99.90;;;;;;5015777;28;20125;-83
2022/04/29 06:02:26;;;;;;;17.48;7.07;;;7.30;99.90;;;;;;4997561;28;20069;-83
2022/04/29 06:04:52;;;;;;;16.98;6.82;;;7.40;99.90;;;;;;4997350;28;20412;-84
2022/04/29 06:07:17;;;;;;;17.48;7.50;;;7.40;99.90;;;;;;4997081;28;20045;-83
2022/04/29 06:09:43;;;;;;;23.25;8.30;;;7.70;99.90;;;;;;5014764;28;20133;-86
2022/04/29 06:12:09;;;;;;;15.88;7.65;;;7.60;99.90;;;;;;5014807;28;20097;-83
2022/04/29 06:14:35;;;;;;;16.15;6.65;;;7.60;99.90;;;;;;5014346;28;20124;-83
2022/04/29 06:17:01;;;;;;;13.18;8.07;;;7.70;99.90;;;;;;4996891;28;20114;-83
2022/04/29 06:19:27;;;;;;;16.80;7.75;;;7.70;99.90;;;;;;5014754;28;20403;-85
2022/04/29 06:21:53;;;;;;;17.90;8.18;;;7.80;99.90;;;;;;4996993;28;20049;-84
2022/04/29 06:24:21;;;;;;;14.90;7.50;;;7.90;99.90;;;;;;4997196;28;20416;-83
2022/04/29 06:26:47;;;;;;;12.88;7.15;;;8.00;99.90;;;;;;5014392;28;20388;-84
2022/04/29 06:29:14;;;;;;;15.27;6.68;;;8.10;99.90;;;;;;5014278;28;20237;-84
2022/04/29 06:31:39;;;;;;;14.88;7.82;;;8.20;99.90;;;;;;4997103;28;20058;-84
2022/04/29 06:34:05;;;;;;;18.85;8.32;;;8.30;99.90;;;;;;4997027;28;20085;-83
2022/04/29 06:36:31;;;;;;;13.30;8.52;;;8.30;99.90;;;;;;4981009;28;20076;-84
2022/04/29 06:38:56;;;;;;;14.93;8.43;;;8.40;99.90;;;;;;5014386;28;20076;-84
2022/04/29 06:41:22;;;;;;;13.50;8.30;;;8.50;99.90;;;;;;5014118;28;20050;-85
2022/04/29 06:43:48;;;;;;;14.60;7.97;;;8.60;99.90;;;;;;5022595;28;20495;-83
2022/04/29 06:46:15;;;;;;;19.40;8.40;;;8.70;99.90;;;;;;5032495;28;20096;-82
2022/04/29 06:48:41;;;;;;;17.63;9.00;;;8.80;99.90;;;;;;5034075;28;20474;-85
2022/04/29 06:51:06;;;;;;;11.73;7.35;;;8.80;99.90;;;;;;5015730;28;20141;-84
2022/04/29 06:53:32;;;;;;;16.73;8.32;;;8.90;99.90;;;;;;5016277;28;20453;-84
2022/04/29 06:55:58;;;;;;;12.95;7.32;;;8.90;99.90;;;;;;5033886;28;20056;-83
2022/04/29 06:58:23;;;;;;;16.20;6.88;;;9.00;99.90;;;;;;5016664;28;20049;-83
2022/04/29 07:00:49;;;;;;;14.05;7.68;;;9.00;99.90;;;;;;5015736;28;20049;-83
2022/04/29 07:03:15;;;;;;;13.38;6.93;;;9.10;99.90;;;;;;5016413;28;20053;-83
2022/04/29 07:05:41;;;;;;;12.00;6.35;;;9.10;99.90;;;;;;5016146;28;20060;-84
2022/04/29 07:08:07;;;;;;;14.50;6.53;;;9.10;99.90;;;;;;5016421;28;20504;-84
2022/04/29 07:10:33;;;;;;;15.70;6.45;;;9.10;99.90;;;;;;5033411;28;20092;-84
2022/04/29 07:13:02;;;;;;;10.60;5.97;;;9.20;99.90;;;;;;5033519;28;20526;-84
2022/04/29 07:15:28;;;;;;;10.80;5.35;;;9.30;99.90;;;;;;5015580;28;20395;-86
2022/04/29 07:17:54;;;;;;;12.93;6.10;;;9.40;99.90;;;;;;5016031;28;20038;-84
2022/04/29 07:20:20;;;;;;;11.77;5.38;;;9.50;99.90;;;;;;5016022;28;20053;-84
2022/04/29 07:22:46;;;;;;;12.40;4.85;;;9.60;99.90;;;;;;5015919;28;20487;-84
2022/04/29 07:25:13;;;;;;;10.15;5.28;;;9.70;99.90;;;;;;4998970;28;20072;-84
2022/04/29 07:27:40;;;;;;;10.63;4.45;;;9.70;99.90;;;;;;5015792;28;20124;-83
2022/04/29 07:30:08;;;;;;;7.53;4.80;;;9.80;99.90;;;;;;4998809;28;20045;-84
2022/04/29 07:32:33;;;;;;;10.00;4.93;;;9.90;99.90;;;;;;5015734;28;20089;-85
2022/04/29 07:43:13;;;;;;;12.20;4.60;;;10.40;99.90;;;;;;5032841;28;20045;-85
2022/04/29 07:45:42;;;;;;;9.57;4.40;;;10.70;99.90;;;;;;4999243;28;20045;-88
2022/04/29 07:48:08;;;;;;;14.70;4.45;;;10.60;99.90;;;;;;5031886;28;20045;-86
2022/04/29 07:50:35;;;;;;;8.77;4.15;;;10.70;99.90;;;;;;5015295;28;20049;-86
2022/04/29 07:53:02;;;;;;;10.10;4.55;;;10.70;99.90;;;;;;5015281;28;20046;-85
2022/04/29 07:55:28;;;;;;;8.00;3.60;;;10.70;99.90;;;;;;4998930;28;20058;-86
2022/04/29 07:57:55;;;;;;;6.90;3.25;;;10.80;99.90;;;;;;5032902;28;20046;-85
2022/04/29 08:00:21;;;;;;;6.80;3.30;;;11.00;99.90;;;;;;5015015;28;20491;-84
2022/04/29 08:02:48;;;;;;;9.52;3.15;;;11.20;99.90;;;;;;5015191;28;20056;-86
2022/04/29 08:05:13;;;;;;;9.48;2.97;;;11.70;99.90;;;;;;5032765;28;20132;-85
2022/04/29 08:07:39;;;;;;;7.57;3.47;;;12.40;99.90;;;;;;5015336;28;20462;-86
2022/04/29 08:10:06;;;;;;;7.72;3.28;;;12.70;99.90;;;;;;5032538;28;20087;-86
2022/04/29 08:12:31;;;;;;;10.00;3.70;;;12.90;99.90;;;;;;5015424;28;20056;-85
2022/04/29 08:14:57;;;;;;;11.98;3.70;;;13.10;99.90;;;;;;5014998;28;20045;-86
2022/04/29 08:17:23;;;;;;;9.45;3.50;;;13.40;99.90;;;;;;5014976;28;20064;-87
2022/04/29 08:19:49;;;;;;;6.45;3.30;;;13.90;99.90;;;;;;5015329;28;20092;-84
2022/04/29 08:22:15;;;;;;;7.38;2.97;;;14.40;99.90;;;;;;5032618;28;20063;-84
2022/04/29 08:24:42;;;;;;;6.60;3.00;;;14.80;99.90;;;;;;5015325;28;20188;-85
2022/04/29 08:27:08;;;;;;;6.88;3.20;;;15.50;99.90;;;;;;5031940;28;20045;-84
2022/04/29 08:29:34;;;;;;;10.90;3.65;;;15.90;99.90;;;;;;5032744;28;20056;-83
2022/04/29 08:32:00;;;;;;;7.00;2.97;;;16.20;99.30;;;;;;4999074;28;20419;-85
2022/04/29 08:34:26;;;;;;;4.57;3.00;;;16.50;98.20;;;;;;4998927;28;20480;-85
2022/04/29 08:36:52;;;;;;;6.63;2.95;;;16.90;93.90;;;;;;5015235;28;20061;-85
2022/04/29 08:39:18;;;;;;;7.82;3.05;;;17.20;90.20;;;;;;5031591;28;20053;-86
2022/04/29 08:41:43;;;;;;;9.38;3.25;;;16.90;87.90;;;;;;5014882;28;20045;-88
2022/04/29 08:44:10;;;;;;;9.02;2.63;;;16.30;91.50;;;;;;5033305;28;20061;-86
2022/04/29 08:46:40;;;;;;;7.15;3.00;;;15.70;93.50;;;;;;5015637;28;20049;-86
2022/04/29 08:49:07;;;;;;;7.25;3.20;;;15.20;95.70;;;;;;5016253;28;20041;-85
2022/04/29 08:51:36;;;;;;;9.18;2.80;;;15.20;98.70;;;;;;5034190;28;20076;-85
2022/04/29 08:54:04;;;;;;;7.38;2.47;;;15.60;94.70;;;;;;5033964;28;20136;-87
2022/04/29 08:59:18;;;;;;;4.90;2.78;;;17.00;78.10;;;;;;5036569;28;20052;-85
2022/04/29 09:01:44;;;;;;;8.98;2.83;;;17.30;77.30;;;;;;5018996;28;20403;-86
2022/04/29 09:04:10;;;;;;;8.05;2.35;;;17.30;77.00;;;;;;5002773;28;20381;-85
2022/04/29 09:06:49;;;;;;;5.07;2.10;;;17.50;75.30;;;;;;5038101;28;20052;-85
2022/04/29 09:09:23;;;;;;;8.65;2.13;;;17.60;74.40;;;;;;5036821;28;20060;-87
2022/04/29 09:11:48;;;;;;;6.63;2.30;;;17.50;72.60;;;;;;5019247;28;20060;-86
2022/04/29 09:14:22;;;;;;;8.98;2.50;;;17.10;75.80;;;;;;5036575;28;20399;-85
2022/04/29 09:16:49;;;;;;;8.50;2.30;;;16.50;77.30;;;;;;5020268;28;20056;-83
2022/04/29 09:19:35;;;;;;;9.55;2.60;;;15.80;85.00;;;;;;5035953;28;20053;-86
2022/04/29 09:22:08;;;;;;;8.57;2.20;;;15.80;89.00;;;;;;5035735;28;20045;-86
2022/04/29 09:24:34;;;;;;;9.70;2.58;;;16.70;79.80;;;;;;5018365;28;20068;-85
2022/04/29 09:27:02;;;;;;;7.70;2.60;;;18.10;73.30;;;;;;5018052;28;20075;-85
2022/04/29 09:29:31;;;;;;;6.63;1.92;;;19.10;65.70;;;;;;5001427;28;20053;-86
2022/04/29 09:32:01;;;;;;;5.40;2.05;;;19.90;61.30;;;;;;5017946;28;20041;-86
2022/04/29 09:34:46;;;;;;;5.45;2.60;;;20.30;58.90;;;;;;5034373;28;20061;-85
2022/04/29 09:37:24;;;;;;;7.38;2.15;;;20.30;56.60;;;;;;5034104;28;20054;-86
2022/04/29 09:39:51;;;;;;;7.35;2.20;;;20.00;57.00;;;;;;5017842;28;20092;-86
2022/04/29 09:42:17;;;;;;;6.80;2.08;;;19.60;58.50;;;;;;5017725;28;20095;-86
2022/04/29 09:44:43;;;;;;;4.93;2.10;;;19.30;59.70;;;;;;5013598;28;20551;-86
2022/04/29 09:47:19;;;;;;;8.05;2.45;;;19.20;59.90;;;;;;5015163;28;20419;-86
2022/04/29 09:49:56;;;;;;;5.72;1.95;;;19.20;58.90;;;;;;5015305;28;20049;-86
2022/04/29 09:52:23;;;;;;;5.35;2.05;;;19.10;58.80;;;;;;5014289;28;20064;-86
2022/04/29 09:54:50;;;;;;;14.20;2.33;;;18.70;60.20;;;;;;5015217;28;20492;-86
2022/04/29 09:57:23;;;;;;;5.72;2.40;;;18.00;61.50;;;;;;5014869;28;20053;-86
2022/04/29 09:59:54;;;;;;;6.20;2.47;;;17.20;64.00;;;;;;5015496;28;20053;-86
2022/04/29 10:02:22;;;;;;;4.50;2.55;;;16.60;67.90;;;;;;4997534;28;20094;-86
2022/04/29 10:04:49;;;;;;;5.60;2.67;;;16.00;74.10;;;;;;5015007;28;20089;-85
2022/04/29 10:07:20;;;;;;;7.55;2.42;;;15.70;79.80;;;;;;5013901;28;20049;-84
2022/04/29 10:09:51;;;;;;;9.98;2.60;;;15.40;81.40;;;;;;5014513;28;20046;-86
2022/04/29 10:12:21;;;;;;;13.85;2.85;;;15.10;86.70;;;;;;5013917;28;20099;-86
2022/04/29 10:14:51;;;;;;;5.38;2.53;;;15.00;90.70;;;;;;5013569;28;20045;-87
2022/04/29 10:23:03;;;;;;;7.43;2.20;;;14.50;93.60;;;;;;4997146;28;20108;-86
2022/04/29 10:25:29;;;;;;;7.95;2.50;;;14.60;93.30;;;;;;5013553;28;20053;-86
2022/04/29 10:27:55;;;;;;;7.40;2.20;;;14.50;93.90;;;;;;5013738;28;20099;-87
2022/04/29 10:30:38;;;;;;;6.50;2.05;;;14.40;93.50;;;;;;5013345;28;20491;-87
2022/04/29 10:33:07;;;;;;;8.50;2.05;;;14.40;93.60;;;;;;5013120;28;20045;-84
2022/04/29 10:35:52;;;;;;;7.53;2.13;;;14.40;93.20;;;;;;5013581;28;20049;-86
2022/04/29 10:38:41;;;;;;;4.90;2.10;;;14.40;92.60;;;;;;4996866;28;20046;-86
2022/04/29 10:41:20;;;;;;;4.22;2.10;;;14.20;91.90;;;;;;4980468;28;20140;-87
2022/04/29 10:43:51;;;;;;;5.20;2.20;;;14.10;93.70;;;;;;5016234;28;20049;-86
2022/04/29 10:46:37;;;;;;;4.95;2.20;;;14.10;95.20;;;;;;5016443;28;20068;-86
2022/04/29 10:49:22;;;;;;;8.98;2.13;;;14.30;93.40;;;;;;5016379;28;20049;-86
2022/04/29 10:51:50;;;;;;;3.75;2.20;;;14.50;94.10;;;;;;5033787;28;20092;-86
2022/04/29 10:54:42;;;;;;;5.88;2.25;;;14.60;90.50;;;;;;5016095;28;20049;-86
2022/04/29 10:57:12;;;;;;;7.75;2.28;;;14.50;91.00;;;;;;5032853;28;20048;-85
2022/04/29 10:59:51;;;;;;;7.32;2.30;;;14.60;91.10;;;;;;5033646;28;20050;-85
2022/04/29 11:02:23;;;;;;;7.93;2.17;;;14.70;88.20;;;;;;4999499;28;20068;-86
2022/04/29 11:04:49;;;;;;;4.13;2.17;;;14.90;88.70;;;;;;5008194;28;20073;-86
2022/04/29 11:07:39;;;;;;;3.35;1.50;;;15.00;88.60;;;;;;5044595;28;20458;-85
2022/04/29 11:10:20;;;;;;;8.55;2.20;;;15.30;85.40;;;;;;5055370;28;20113;-86
2022/04/29 11:13:05;;;;;;;5.22;1.92;;;15.40;85.30;;;;;;5039128;28;20056;-86
2022/04/29 11:15:44;;;;;;;3.58;1.90;;;15.40;81.20;;;;;;5055285;28;20042;-86
2022/04/29 11:18:25;;;;;;;9.52;2.15;;;15.30;83.40;;;;;;5024734;28;20057;-85
2022/04/29 11:20:56;;;;;;;5.20;2.13;;;15.30;82.90;;;;;;5033066;28;20367;-85
2022/04/29 11:26:15;;;;;;;6.95;2.10;;;15.10;80.30;;;;;;5033413;28;20057;-86
2022/04/29 11:28:41;;;;;;;8.55;2.10;;;14.90;84.90;;;;;;5015686;28;20085;-86
2022/04/29 11:31:09;;;;;;;8.75;2.28;;;14.80;90.40;;;;;;5014876;28;20068;-86
2022/04/29 11:33:35;;;;;;;6.22;2.33;;;14.80;92.70;;;;;;5015783;28;20037;-86
2022/04/29 11:36:07;;;;;;;6.40;2.08;;;14.80;91.80;;;;;;4998630;28;20431;-86
2022/04/29 11:38:41;;;;;;;7.22;1.98;;;14.70;92.80;;;;;;5015833;28;20425;-85
2022/04/29 11:41:07;;;;;;;9.50;2.33;;;14.60;93.00;;;;;;5015482;28;20475;-85
2022/04/29 11:43:33;;;;;;;9.15;2.45;;;14.60;94.80;;;;;;5002376;28;20047;-86
2022/04/29 11:46:05;;;;;;;5.63;2.10;;;14.50;95.90;;;;;;5034562;28;20049;-85
2022/04/29 11:48:32;;;;;;;6.20;2.20;;;14.50;95.10;;;;;;5034981;28;20124;-85
2022/04/29 11:50:58;;;;;;;4.93;2.20;;;14.40;94.60;;;;;;5017389;28;20491;-85
2022/04/29 11:53:25;;;;;;;8.45;2.10;;;14.30;95.10;;;;;;5015172;28;20509;-86
2022/04/29 11:55:51;;;;;;;11.23;2.65;;;14.40;93.90;;;;;;5033367;28;20117;-85
2022/04/29 11:58:17;;;;;;;4.95;1.92;;;14.50;93.40;;;;;;5031719;28;20061;-84
2022/04/29 12:00:54;;;;;;;12.43;2.72;;;14.50;93.40;;;;;;5019623;28;20426;-84
2022/04/29 12:03:22;;;;;;;6.22;2.50;;;14.50;93.10;;;;;;5010653;28;20053;-86
2022/04/29 12:05:51;;;;;;;6.20;2.50;;;14.60;92.50;;;;;;5035585;28;20053;-85
2022/04/29 12:08:19;;;;;;;7.78;2.42;;;14.70;92.30;;;;;;5035134;28;20056;-85
2022/04/29 12:10:47;;;;;;;6.43;2.65;;;14.80;88.60;;;;;;5052986;28;20057;-87
2022/04/29 12:13:12;;;;;;;3.72;2.22;;;14.80;87.30;;;;;;5034867;28;20071;-86
2022/04/29 12:15:41;;;;;;;8.10;2.28;;;14.90;89.60;;;;;;5018357;28;20482;-86
2022/04/29 12:18:13;;;;;;;4.65;2.55;;;14.90;86.70;;;;;;5034731;28;20410;-86
2022/04/29 12:20:39;;;;;;;10.93;2.95;;;15.00;85.10;;;;;;5052548;28;20041;-86
2022/04/29 12:23:22;;;;;;;6.32;2.33;;;15.20;83.90;;;;;;5034670;28;20033;-85
2022/04/29 12:25:48;;;;;;;4.00;2.38;;;15.50;84.90;;;;;;5034833;28;20049;-85
2022/04/29 12:28:22;;;;;;;6.88;2.70;;;15.80;79.90;;;;;;5034672;28;20053;-86
2022/04/29 12:36:31;;;;;;;8.52;2.42;;;15.90;77.70;;;;;;5034688;28;20457;-86
2022/04/29 12:39:04;;;;;;;7.30;2.95;;;15.90;78.60;;;;;;5052031;28;20041;-92
2022/04/29 12:41:30;;;;;;;6.68;3.50;;;16.10;75.70;;;;;;5034997;28;20403;-87
2022/04/29 12:45:03;;;;;;;9.10;3.55;;;16.20;77.70;;;;;;5034880;28;20064;-86
2022/04/29 12:47:01;;;;;;;10.15;3.40;;;16.20;72.30;;;;;;5034293;28;20064;-86
2022/04/29 12:49:27;;;;;;;6.50;2.97;;;16.00;73.90;;;;;;5055137;28;20414;-86
2022/04/29 12:51:58;;;;;;;7.75;3.30;;;15.80;76.20;;;;;;5056211;28;20040;-87
2022/04/29 12:54:25;;;;;;;4.85;2.97;;;15.70;79.20;;;;;;5022200;28;20053;-86
2022/04/29 12:56:51;;;;;;;5.63;3.63;;;15.60;78.10;;;;;;5038325;28;20376;-86
2022/04/29 12:59:24;;;;;;;6.95;3.63;;;15.60;77.10;;;;;;5038590;28;20056;-85
2022/04/29 13:01:52;;;;;;;8.52;4.10;;;15.30;75.60;;;;;;5055596;28;20053;-87
2022/04/29 13:04:18;;;;;;;8.25;3.70;;;15.10;80.80;;;;;;5055690;28;20120;-86
2022/04/29 13:06:44;;;;;;;12.15;3.78;;;15.20;81.10;;;;;;5055982;28;20513;-84
2022/04/29 13:09:11;;;;;;;9.02;3.75;;;15.30;81.70;;;;;;5037530;28;20098;-86
2022/04/29 13:11:37;;;;;;;6.50;3.95;;;15.20;78.50;;;;;;5035407;28;20080;-85
2022/04/29 13:14:03;;;;;;;5.93;4.15;;;15.20;81.00;;;;;;5021384;28;20056;-85
2022/04/29 13:16:29;;;;;;;8.02;4.22;;;15.40;78.50;;;;;;5021479;28;20214;-85
2022/04/29 13:18:55;;;;;;;10.02;4.32;;;15.30;77.70;;;;;;5054682;28;20135;-86